createdAt,value
2022-08-11T00:02:07.099Z,2.42
2022-08-11T00:07:19.124Z,2.97
2022-08-11T00:12:22.344Z,2.50
2022-08-11T00:17:30.726Z,2.60
2022-08-11T00:22:35.162Z,2.70
2022-08-11T00:27:40.399Z,2.33
2022-08-11T00:32:47.232Z,2.80
2022-08-11T00:37:51.923Z,2.20
2022-08-11T00:43:02.909Z,2.50
2022-08-11T00:48:15.473Z,2.35
2022-08-11T00:53:44.362Z,2.40
2022-08-11T00:59:35.149Z,2.50
2022-08-11T01:05:27.235Z,2.90
2022-08-11T01:10:59.497Z,2.95
2022-08-11T01:16:48.083Z,3.00
2022-08-11T01:22:24.690Z,2.50
2022-08-11T01:27:59.753Z,2.90
2022-08-11T01:33:46.950Z,2.55
2022-08-11T01:39:23.001Z,2.85
2022-08-11T01:44:55.814Z,2.78
2022-08-11T01:50:10.612Z,2.70
2022-08-11T01:55:24.124Z,2.90
2022-08-11T02:00:31.337Z,2.58
2022-08-11T02:06:01.137Z,2.60
2022-08-11T02:11:35.226Z,2.53
2022-08-11T02:16:51.009Z,3.00
2022-08-11T02:22:18.793Z,2.90
2022-08-11T02:27:28.358Z,2.80
2022-08-11T02:32:55.397Z,2.95
2022-08-11T02:38:13.162Z,2.80
2022-08-11T02:43:36.612Z,2.90
2022-08-11T02:49:09.611Z,3.00
2022-08-11T02:54:23.604Z,3.20
2022-08-11T02:59:53.635Z,3.25
2022-08-11T03:05:07.275Z,2.90
2022-08-11T03:10:19.281Z,3.10
2022-08-11T03:15:58.287Z,3.25
2022-08-11T03:21:08.859Z,3.13
2022-08-11T03:26:29.138Z,2.92
2022-08-11T03:31:36.644Z,3.50
2022-08-11T03:37:17.594Z,3.33
2022-08-11T03:42:30.276Z,2.88
2022-08-11T03:47:52.642Z,3.30
2022-08-11T03:53:13.607Z,3.70
2022-08-11T03:58:59.071Z,3.88
2022-08-11T04:04:32.842Z,4.20
2022-08-11T04:10:16.651Z,3.80
2022-08-11T04:16:12.009Z,3.75
2022-08-11T04:21:41.938Z,3.70
2022-08-11T04:27:14.592Z,3.65
2022-08-11T04:32:36.312Z,3.50
2022-08-11T04:38:06.498Z,3.67
2022-08-11T04:44:05.879Z,3.80
2022-08-11T04:50:13.954Z,4.03
2022-08-11T04:55:57.500Z,3.60
2022-08-11T05:01:37.314Z,3.97
2022-08-11T05:07:48.396Z,4.32
2022-08-11T05:12:56.159Z,4.20
2022-08-11T05:18:21.406Z,4.65
2022-08-11T05:23:46.189Z,4.50
2022-08-11T05:29:20.222Z,5.55
2022-08-11T05:34:44.273Z,4.55
2022-08-11T05:40:07.958Z,4.65
2022-08-11T05:45:58.128Z,4.82
2022-08-11T05:51:16.921Z,4.13
2022-08-11T05:56:20.772Z,4.75
2022-08-11T06:01:28.002Z,4.20
2022-08-11T06:06:32.511Z,4.67
2022-08-11T06:11:44.081Z,4.88
2022-08-11T06:16:51.249Z,4.90
2022-08-11T06:22:05.187Z,4.50
2022-08-11T06:29:18.829Z,4.40
2022-08-11T06:33:43.922Z,4.57
2022-08-11T06:39:10.911Z,4.50
2022-08-11T06:44:30.448Z,4.00
2022-08-11T06:50:05.640Z,4.68
2022-08-11T06:55:56.980Z,3.63
2022-08-11T07:00:37.100Z,3.75
2022-08-11T07:05:50.203Z,3.58
2022-08-11T07:11:23.965Z,3.50
2022-08-11T07:16:29.837Z,2.80
2022-08-11T07:22:02.262Z,3.35
2022-08-11T07:27:27.164Z,3.30
2022-08-11T07:32:33.827Z,3.05
2022-08-11T07:37:38.569Z,3.00
2022-08-11T07:42:46.495Z,3.15
2022-08-11T07:48:07.286Z,3.28
2022-08-11T07:53:14.192Z,4.05
2022-08-11T07:58:41.424Z,2.45
2022-08-11T08:04:06.532Z,2.88
2022-08-11T08:09:29.036Z,2.80
2022-08-11T08:14:50.234Z,2.97
2022-08-11T08:19:53.614Z,2.95
2022-08-11T08:24:58.784Z,3.10
2022-08-11T08:30:20.503Z,2.67
2022-08-11T08:35:23.943Z,3.13
2022-08-11T08:40:28.716Z,3.10
2022-08-11T08:45:37.729Z,3.00
2022-08-11T08:51:17.131Z,3.30
2022-08-11T08:56:26.277Z,2.95
2022-08-11T09:01:31.584Z,3.65
2022-08-11T09:06:35.211Z,3.45
2022-08-11T09:11:53.630Z,2.90
2022-08-11T09:16:56.685Z,3.15
2022-08-11T09:22:15.501Z,2.85
2022-08-11T09:27:22.576Z,2.08
2022-08-11T09:32:26.600Z,1.73
2022-08-11T09:37:55.985Z,1.70
2022-08-11T09:43:28.926Z,2.05
2022-08-11T09:48:36.190Z,2.20
2022-08-11T09:53:41.650Z,2.00
2022-08-11T09:59:06.800Z,2.10
2022-08-11T10:04:16.350Z,2.10
2022-08-11T10:09:21.323Z,2.28
2022-08-11T10:14:51.052Z,2.33
2022-08-11T10:20:05.145Z,2.05
2022-08-11T10:25:27.332Z,2.03
2022-08-11T10:30:49.561Z,2.10
2022-08-11T10:35:52.989Z,1.60
2022-08-11T10:41:10.505Z,1.80
2022-08-11T10:46:32.740Z,1.90
2022-08-11T10:51:54.067Z,2.00
2022-08-11T10:57:19.564Z,2.17
2022-08-11T11:02:27.224Z,1.95
2022-08-11T11:07:44.515Z,2.08
2022-08-11T11:13:10.386Z,2.35
2022-08-11T11:18:20.315Z,1.77
2022-08-11T11:23:26.956Z,2.33
2022-08-11T11:28:44.143Z,1.93
2022-08-11T11:34:14.914Z,2.22
2022-08-11T11:39:21.306Z,1.60
2022-08-11T11:44:25.504Z,1.90
2022-08-11T11:49:32.344Z,1.80
2022-08-11T11:54:36.945Z,1.80
2022-08-11T11:59:57.591Z,1.95
2022-08-11T12:05:08.899Z,1.90
2022-08-11T12:10:11.969Z,1.60
2022-08-11T12:15:19.009Z,2.03
2022-08-11T12:20:54.023Z,1.70
2022-08-11T12:26:26.896Z,1.45
2022-08-11T12:31:31.254Z,1.80
2022-08-11T12:36:39.964Z,1.70
2022-08-11T12:42:01.837Z,1.60
2022-08-11T12:47:05.689Z,1.30
2022-08-11T12:52:15.893Z,1.70
2022-08-11T12:57:44.356Z,1.42
2022-08-11T13:03:05.710Z,1.40
2022-08-11T13:08:10.842Z,1.75
2022-08-11T13:13:55.553Z,1.48
2022-08-11T13:18:42.586Z,1.40
2022-08-11T13:23:59.915Z,1.48
2022-08-11T13:29:06.360Z,1.50
2022-08-11T13:34:10.592Z,1.75
2022-08-11T13:39:15.402Z,1.60
2022-08-11T13:44:25.376Z,1.60
2022-08-11T13:49:29.813Z,1.30
2022-08-11T13:54:38.407Z,1.60
2022-08-11T13:59:45.999Z,1.40
2022-08-11T14:04:58.817Z,1.42
2022-08-11T14:10:05.457Z,1.40
2022-08-11T14:15:19.865Z,1.40
2022-08-11T14:20:39.945Z,1.88
2022-08-11T14:26:01.868Z,1.50
2022-08-11T14:31:06.310Z,1.83
2022-08-11T14:36:11.806Z,1.40
2022-08-11T14:41:34.711Z,1.70
2022-08-11T14:46:55.283Z,1.60
2022-08-11T14:51:59.639Z,1.40
2022-08-11T14:57:04.377Z,1.70
2022-08-11T15:02:25.794Z,1.55
2022-08-11T15:07:30.690Z,1.50
2022-08-11T15:12:36.881Z,2.03
2022-08-11T15:17:43.774Z,1.58
2022-08-11T15:23:18.841Z,1.40
2022-08-11T15:28:45.688Z,1.60
2022-08-11T15:34:18.082Z,1.67
2022-08-11T15:39:25.935Z,1.60
2022-08-11T15:45:03.267Z,1.88
2022-08-11T15:55:17.754Z,2.20
2022-08-11T16:00:40.568Z,2.08
2022-08-11T16:05:45.770Z,2.10
2022-08-11T16:10:51.246Z,1.80
2022-08-11T16:16:18.644Z,1.77
2022-08-11T16:21:33.626Z,1.73
2022-08-11T16:27:08.361Z,2.50
2022-08-11T16:32:22.063Z,2.00
2022-08-11T16:37:44.097Z,1.60
2022-08-11T16:43:10.287Z,1.75
2022-08-11T16:48:36.415Z,1.90
2022-08-11T16:53:59.739Z,1.80
2022-08-11T16:59:15.311Z,2.45
2022-08-11T17:04:46.410Z,2.15
2022-08-11T17:10:39.591Z,2.10
2022-08-11T17:15:50.922Z,2.10
2022-08-11T17:20:55.568Z,2.03
2022-08-11T17:26:03.358Z,2.78
2022-08-11T17:31:24.502Z,2.10
2022-08-11T17:36:29.043Z,2.20
2022-08-11T17:41:50.336Z,2.28
2022-08-11T17:47:11.612Z,2.28
2022-08-11T17:52:35.540Z,2.90
2022-08-11T17:57:58.405Z,3.20
2022-08-11T18:03:20.052Z,2.80
2022-08-11T18:08:42.893Z,2.20
2022-08-11T18:14:06.869Z,2.70
2022-08-11T18:19:30.724Z,2.00
2022-08-11T18:24:57.227Z,1.95
2022-08-11T18:30:19.867Z,2.45
2022-08-11T18:35:41.692Z,2.03
2022-08-11T18:41:06.095Z,4.93
2022-08-11T18:46:31.232Z,3.00
2022-08-11T18:52:37.447Z,2.63
2022-08-11T18:58:00.285Z,2.67
2022-08-11T19:03:24.032Z,2.17
2022-08-11T19:08:53.547Z,2.20
2022-08-11T19:14:16.565Z,1.85
2022-08-11T19:19:39.049Z,2.10
2022-08-11T19:25:01.083Z,1.80
2022-08-11T19:30:25.482Z,1.90
2022-08-11T19:35:47.216Z,2.03
2022-08-11T19:41:08.840Z,2.22
2022-08-11T19:46:31.753Z,1.80
2022-08-11T19:51:54.713Z,1.63
2022-08-11T19:57:16.117Z,2.50
2022-08-11T20:02:38.417Z,2.15
2022-08-11T20:08:00.124Z,2.08
2022-08-11T20:13:24.791Z,1.70
2022-08-11T20:18:48.712Z,2.00
2022-08-11T20:24:09.429Z,1.77
2022-08-11T20:29:30.086Z,1.92
2022-08-11T20:34:55.243Z,1.83
2022-08-11T20:40:23.745Z,1.70
2022-08-11T20:45:55.186Z,1.90
2022-08-11T20:51:20.366Z,2.28
2022-08-11T20:56:45.595Z,2.00
2022-08-11T21:02:09.419Z,2.10
2022-08-11T21:07:34.724Z,2.00
2022-08-11T21:12:58.473Z,1.90
2022-08-11T21:18:42.985Z,1.98
2022-08-11T21:24:06.949Z,2.20
2022-08-11T21:29:31.303Z,2.20
2022-08-11T21:34:54.122Z,1.73
2022-08-11T21:40:18.011Z,1.92
2022-08-11T21:45:38.688Z,2.13
2022-08-11T21:50:58.798Z,2.75
2022-08-11T21:56:22.119Z,2.33
2022-08-11T22:07:09.324Z,2.15
2022-08-11T22:12:35.453Z,2.10
2022-08-11T22:17:58.291Z,1.90
2022-08-11T22:23:21.563Z,2.03
2022-08-11T22:28:43.691Z,2.05
2022-08-11T22:34:04.295Z,2.08
2022-08-11T22:39:26.166Z,1.90
2022-08-11T22:44:47.828Z,2.20
2022-08-11T22:50:14.002Z,1.90
2022-08-11T22:55:37.554Z,2.08
2022-08-11T23:00:59.621Z,2.05
2022-08-11T23:06:21.811Z,2.05
2022-08-11T23:12:06.530Z,1.77
2022-08-11T23:17:24.631Z,2.15
2022-08-11T23:22:50.152Z,2.00
2022-08-11T23:28:11.472Z,1.90
2022-08-11T23:33:36.522Z,2.35
2022-08-11T23:38:56.579Z,2.08
2022-08-11T23:44:19.367Z,1.90
2022-08-11T23:49:41.321Z,2.30
2022-08-11T23:55:03.508Z,2.00
